Time;durP1;ratioP1;P1;durP2;ratioP2;P2;SDS_P1;SDS_P2;PMS_P1;PMS_P2;Temp;Humidity;BMP_temperature;BMP_pressure;BME280_temperature;BME280_humidity;BME280_pressure;Samples;Min_cycle;Max_cycle;Signal;HPM_P1;HPM_P2
2022/06/30 00:00:36;;;;;;;26.65;11.68;;;;;;;;;;5010671;28;20041;-77
2022/06/30 00:03:01;;;;;;;23.70;12.13;;;;;;;;;;5008976;28;20524;-76
2022/06/30 00:05:27;;;;;;;20.10;11.68;;;;;;;;;;5014259;28;20026;-76
2022/06/30 00:07:52;;;;;;;22.25;12.32;;;;;;;;;;5042425;28;20060;-76
2022/06/30 00:10:17;;;;;;;31.83;12.95;;;;;;;;;;5011132;28;20394;-75
2022/06/30 00:12:43;;;;;;;31.40;14.20;;;;;;;;;;5025684;28;20112;-76
2022/06/30 00:15:09;;;;;;;23.42;12.55;;;;;;;;;;5010450;28;20091;-77
2022/06/30 00:17:35;;;;;;;31.52;14.38;;;;;;;;;;5010466;28;20176;-78
2022/06/30 00:20:00;;;;;;;28.90;14.20;;;;;;;;;;5025513;28;20232;-76
2022/06/30 00:22:26;;;;;;;31.90;14.80;;;;;;;;;;5024515;28;20064;-77
2022/06/30 00:24:52;;;;;;;32.85;14.18;;;;;;;;;;5010249;28;20025;-77
2022/06/30 00:27:18;;;;;;;31.33;16.83;;;;;;;;;;5010206;28;20402;-78
2022/06/30 00:29:44;;;;;;;31.70;15.05;;;;;;;;;;5008725;28;20036;-77
2022/06/30 00:32:10;;;;;;;29.52;14.63;;;;;;;;;;5010004;28;20029;-78
2022/06/30 00:34:35;;;;;;;36.20;15.45;;;;;;;;;;5010148;28;20041;-78
2022/06/30 00:37:01;;;;;;;29.25;13.52;;;;;;;;;;5008363;28;20096;-77
2022/06/30 00:39:28;;;;;;;32.75;15.75;;;;;;;;;;5009128;28;20041;-77
2022/06/30 00:41:54;;;;;;;31.48;15.68;;;;;;;;;;5010320;28;20368;-77
2022/06/30 00:44:20;;;;;;;30.63;15.52;;;;;;;;;;5024925;28;20033;-77
2022/06/30 00:46:45;;;;;;;33.85;15.73;;;;;;;;;;5010066;28;20397;-77
2022/06/30 00:49:11;;;;;;;35.35;15.60;;;;;;;;;;5025112;28;20030;-75
2022/06/30 00:51:36;;;;;;;35.42;16.92;;;;;;;;;;5009489;28;20032;-78
2022/06/30 00:54:05;;;;;;;32.15;16.80;;;;;;;;;;5008682;28;20113;-77
2022/06/30 00:56:33;;;;;;;36.58;17.70;;;;;;;;;;5008571;28;20029;-76
2022/06/30 00:59:04;;;;;;;40.83;20.75;;;;;;;;;;5025502;28;20026;-77
2022/06/30 01:01:31;;;;;;;31.45;16.23;;;;;;;;;;5025336;28;20029;-77
2022/06/30 01:03:58;;;;;;;33.35;17.63;;;;;;;;;;5009771;28;20029;-77
2022/06/30 01:06:25;;;;;;;39.53;16.67;;;;;;;;;;5009630;28;20088;-78
2022/06/30 01:08:51;;;;;;;33.97;16.58;;;;;;;;;;5008695;28;20021;-78
2022/06/30 01:14:02;;;;;;;32.10;15.50;;;;;;;;;;5010333;28;20089;-77
2022/06/30 01:16:27;;;;;;;32.60;15.95;;;;;;;;;;5029228;28;20029;-78
2022/06/30 01:18:53;;;;;;;36.67;16.20;;;;;;;;;;5016106;28;20029;-77
2022/06/30 01:21:18;;;;;;;39.05;17.10;;;;;;;;;;5017014;28;20052;-78
2022/06/30 01:23:45;;;;;;;39.15;17.65;;;;;;;;;;5018808;28;20046;-78
2022/06/30 01:26:11;;;;;;;36.00;17.08;;;;;;;;;;5032571;28;20053;-79
2022/06/30 01:28:36;;;;;;;35.63;17.23;;;;;;;;;;5028797;28;20029;-77
2022/06/30 01:31:02;;;;;;;36.13;16.02;;;;;;;;;;5010817;28;20033;-77
2022/06/30 01:33:27;;;;;;;38.90;17.92;;;;;;;;;;5009702;28;20026;-77
2022/06/30 01:35:56;;;;;;;38.10;16.80;;;;;;;;;;5024660;28;20486;-77
2022/06/30 01:38:22;;;;;;;36.75;17.38;;;;;;;;;;5009155;28;20383;-76
2022/06/30 01:40:48;;;;;;;36.42;16.50;;;;;;;;;;5009426;28;20057;-76
2022/06/30 01:43:15;;;;;;;39.08;16.35;;;;;;;;;;5007853;28;20105;-76
2022/06/30 01:45:41;;;;;;;33.47;16.60;;;;;;;;;;5024448;28;20033;-78
2022/06/30 01:48:08;;;;;;;40.70;17.42;;;;;;;;;;5024455;28;20437;-77
2022/06/30 01:50:33;;;;;;;35.53;17.27;;;;;;;;;;5024369;28;20041;-76
2022/06/30 01:53:00;;;;;;;36.80;16.95;;;;;;;;;;5009260;28;20578;-75
2022/06/30 01:55:28;;;;;;;39.60;17.88;;;;;;;;;;5009237;28;20156;-76
2022/06/30 01:57:54;;;;;;;36.22;16.13;;;;;;;;;;5009000;28;20661;-77
2022/06/30 02:00:24;;;;;;;36.92;17.35;;;;;;;;;;5024090;28;20116;-77
2022/06/30 02:02:50;;;;;;;38.47;16.95;;;;;;;;;;5009837;28;20083;-77
2022/06/30 02:05:16;;;;;;;37.35;17.92;;;;;;;;;;5011039;28;20030;-77
2022/06/30 02:07:42;;;;;;;37.95;17.40;;;;;;;;;;5012785;28;20377;-77
2022/06/30 02:10:10;;;;;;;38.38;17.95;;;;;;;;;;5041370;28;20045;-76
2022/06/30 02:12:45;;;;;;;36.35;16.40;;;;;;;;;;5019221;28;20060;-77
2022/06/30 02:15:23;;;;;;;37.33;18.90;;;;;;;;;;5012442;28;20018;-77
2022/06/30 02:17:51;;;;;;;38.63;18.38;;;;;;;;;;5012965;28;20380;-77
2022/06/30 02:20:21;;;;;;;39.40;17.88;;;;;;;;;;5027722;28;20030;-78
2022/06/30 02:22:47;;;;;;;38.05;18.77;;;;;;;;;;5007769;28;20433;-79
2022/06/30 02:25:13;;;;;;;49.60;20.48;;;;;;;;;;4992840;28;20023;-77
2022/06/30 02:27:38;;;;;;;42.78;18.02;;;;;;;;;;5008187;28;20422;-78
2022/06/30 02:30:06;;;;;;;43.30;19.52;;;;;;;;;;4993547;28;20057;-77
2022/06/30 02:32:32;;;;;;;41.45;18.88;;;;;;;;;;4992889;28;20081;-77
2022/06/30 02:34:58;;;;;;;43.10;18.17;;;;;;;;;;5008037;28;20018;-78
2022/06/30 02:37:24;;;;;;;40.28;18.80;;;;;;;;;;5007476;28;20561;-76
2022/06/30 02:39:49;;;;;;;41.33;19.98;;;;;;;;;;5007976;28;20026;-79
2022/06/30 02:42:15;;;;;;;41.17;19.92;;;;;;;;;;5007427;28;20026;-77
2022/06/30 02:44:40;;;;;;;40.20;18.33;;;;;;;;;;4992516;28;20037;-77
2022/06/30 02:47:06;;;;;;;41.55;19.55;;;;;;;;;;4992528;28;20026;-76
2022/06/30 02:49:31;;;;;;;44.35;19.60;;;;;;;;;;5007104;28;20053;-78
2022/06/30 02:51:57;;;;;;;44.58;20.00;;;;;;;;;;5007249;28;20049;-78
2022/06/30 02:54:22;;;;;;;44.15;19.20;;;;;;;;;;4992005;28;20026;-76
2022/06/30 02:56:49;;;;;;;41.75;18.77;;;;;;;;;;4992464;28;20057;-78
2022/06/30 02:59:16;;;;;;;47.35;19.77;;;;;;;;;;5007078;28;20042;-76
2022/06/30 03:01:42;;;;;;;43.47;19.35;;;;;;;;;;4992651;28;20493;-77
2022/06/30 03:04:07;;;;;;;41.05;18.63;;;;;;;;;;4992459;28;20034;-78
2022/06/30 03:06:34;;;;;;;51.42;19.85;;;;;;;;;;5007077;28;20025;-78
2022/06/30 03:09:00;;;;;;;48.47;19.65;;;;;;;;;;5007025;28;20030;-78
2022/06/30 03:11:26;;;;;;;44.22;20.98;;;;;;;;;;5006837;28;20022;-76
2022/06/30 03:13:52;;;;;;;55.22;21.00;;;;;;;;;;5006644;28;20030;-76
2022/06/30 03:16:17;;;;;;;38.33;18.73;;;;;;;;;;4991181;28;20755;-77
2022/06/30 03:18:44;;;;;;;42.17;18.48;;;;;;;;;;5006571;28;20026;-77
2022/06/30 03:21:10;;;;;;;46.70;19.23;;;;;;;;;;5006286;28;20057;-76
2022/06/30 03:23:35;;;;;;;45.08;20.08;;;;;;;;;;5021807;28;20034;-76
2022/06/30 03:26:02;;;;;;;44.88;19.58;;;;;;;;;;5026349;28;20091;-77
2022/06/30 03:28:29;;;;;;;45.85;19.95;;;;;;;;;;5026001;28;20064;-78
2022/06/30 03:30:54;;;;;;;46.60;20.05;;;;;;;;;;5011189;28;20029;-77
2022/06/30 03:33:21;;;;;;;42.58;19.42;;;;;;;;;;5010755;28;20025;-77
2022/06/30 03:35:46;;;;;;;44.50;21.17;;;;;;;;;;5010726;28;20438;-77
2022/06/30 03:38:12;;;;;;;50.17;19.52;;;;;;;;;;5025765;28;20125;-77
2022/06/30 03:40:38;;;;;;;42.95;20.63;;;;;;;;;;5011188;28;20108;-77
2022/06/30 03:43:04;;;;;;;44.78;20.50;;;;;;;;;;5025945;28;20538;-78
2022/06/30 03:45:29;;;;;;;42.78;20.38;;;;;;;;;;5010281;28;20474;-77
2022/06/30 03:47:56;;;;;;;43.10;19.75;;;;;;;;;;5026115;28;20461;-78
2022/06/30 03:50:21;;;;;;;44.78;22.42;;;;;;;;;;5008903;28;20034;-76
2022/06/30 03:52:47;;;;;;;46.53;23.00;;;;;;;;;;5009431;28;20028;-77
2022/06/30 03:55:13;;;;;;;37.05;17.30;;;;;;;;;;5025490;28;20060;-76
2022/06/30 03:57:38;;;;;;;37.58;18.13;;;;;;;;;;5025277;28;20034;-77
2022/06/30 04:00:05;;;;;;;39.97;18.25;;;;;;;;;;5010464;28;20018;-77
2022/06/30 04:02:31;;;;;;;32.47;15.68;;;;;;;;;;5010269;28;20508;-76
2022/06/30 04:04:57;;;;;;;32.30;16.20;;;;;;;;;;5010366;28;20075;-78
2022/06/30 04:07:23;;;;;;;34.28;16.48;;;;;;;;;;5025424;28;20017;-78
2022/06/30 04:09:48;;;;;;;30.88;16.30;;;;;;;;;;5010206;28;20041;-77
2022/06/30 04:12:15;;;;;;;30.67;14.95;;;;;;;;;;5025515;28;20079;-77
2022/06/30 04:14:41;;;;;;;29.98;15.88;;;;;;;;;;5025505;28;20053;-78
2022/06/30 04:17:06;;;;;;;32.00;15.35;;;;;;;;;;5008815;28;20133;-77
2022/06/30 04:19:32;;;;;;;28.30;15.07;;;;;;;;;;5010054;28;20029;-77
2022/06/30 04:21:57;;;;;;;36.78;17.15;;;;;;;;;;5025078;28;20098;-76
2022/06/30 04:24:23;;;;;;;29.60;15.30;;;;;;;;;;5009807;28;20049;-77
2022/06/30 04:26:48;;;;;;;30.92;15.75;;;;;;;;;;5009260;28;20107;-76
2022/06/30 04:29:14;;;;;;;32.97;15.23;;;;;;;;;;5025122;28;20045;-77
2022/06/30 04:34:23;;;;;;;32.00;15.60;;;;;;;;;;5009950;28;20088;-77
2022/06/30 04:36:49;;;;;;;29.27;14.77;;;;;;;;;;5010447;28;20018;-77
2022/06/30 04:39:14;;;;;;;29.73;15.20;;;;;;;;;;5025062;28;20038;-77
2022/06/30 04:41:40;;;;;;;31.25;16.75;;;;;;;;;;5008943;28;20022;-78
2022/06/30 04:44:05;;;;;;;29.40;16.05;;;;;;;;;;5010795;28;20518;-78
2022/06/30 04:46:31;;;;;;;30.15;16.30;;;;;;;;;;5025077;28;20033;-77
2022/06/30 04:48:57;;;;;;;30.30;16.77;;;;;;;;;;5009738;28;20058;-77
2022/06/30 04:51:23;;;;;;;34.10;17.83;;;;;;;;;;5009808;28;20072;-77
2022/06/30 04:53:49;;;;;;;34.33;15.15;;;;;;;;;;5025091;28;20061;-77
2022/06/30 04:56:15;;;;;;;33.13;17.20;;;;;;;;;;5024816;28;20026;-78
2022/06/30 04:58:41;;;;;;;32.20;15.63;;;;;;;;;;5019253;28;20072;-78
2022/06/30 05:01:07;;;;;;;35.47;17.05;;;;;;;;;;5001461;28;20022;-77
2022/06/30 05:03:33;;;;;;;29.58;17.58;;;;;;;;;;5009547;28;20021;-75
2022/06/30 05:05:59;;;;;;;36.72;18.77;;;;;;;;;;5024683;28;20405;-78
2022/06/30 05:08:25;;;;;;;36.63;19.17;;;;;;;;;;5000308;28;20053;-78
2022/06/30 05:10:50;;;;;;;34.90;18.88;;;;;;;;;;4991448;28;20042;-76
2022/06/30 05:13:16;;;;;;;36.35;17.40;;;;;;;;;;5009127;28;20056;-77
2022/06/30 05:15:42;;;;;;;33.58;17.42;;;;;;;;;;5024333;28;20029;-79
2022/06/30 05:18:08;;;;;;;38.60;18.80;;;;;;;;;;4997082;28;20085;-80
2022/06/30 05:20:34;;;;;;;35.03;19.00;;;;;;;;;;5008876;28;20144;-81
2022/06/30 05:23:00;;;;;;;32.17;17.08;;;;;;;;;;5021751;28;20046;-78
2022/06/30 05:28:11;;;;;;;34.05;16.27;;;;;;;;;;5000390;28;20033;-78
2022/06/30 05:30:36;;;;;;;27.50;16.52;;;;;;;;;;5010338;28;20014;-75
2022/06/30 05:33:03;;;;;;;27.92;15.75;;;;;;;;;;5008897;28;20037;-79
2022/06/30 05:35:33;;;;;;;30.00;15.30;;;;;;;;;;5004095;28;20462;-80
2022/06/30 05:37:59;;;;;;;55.60;20.10;;;;;;;;;;5025718;28;20038;-75
2022/06/30 05:40:26;;;;;;;33.83;16.75;;;;;;;;;;5025963;28;20113;-82
2022/06/30 05:42:51;;;;;;;35.30;17.90;;;;;;;;;;5015034;28;20033;-78
2022/06/30 05:45:17;;;;;;;31.75;15.73;;;;;;;;;;5007010;28;20072;-80
2022/06/30 05:47:51;;;;;;;34.13;15.82;;;;;;;;;;5029575;28;20457;-76
2022/06/30 05:50:18;;;;;;;27.77;15.93;;;;;;;;;;5029483;28;20025;-77
2022/06/30 05:52:44;;;;;;;29.35;15.82;;;;;;;;;;5015274;28;20032;-77
2022/06/30 05:55:11;;;;;;;35.60;17.25;;;;;;;;;;5028451;28;20029;-76
2022/06/30 05:57:58;;;;;;;32.03;17.00;;;;;;;;;;5028943;28;20050;-77
2022/06/30 06:00:26;;;;;;;31.17;16.70;;;;;;;;;;5045468;28;20006;-74
2022/06/30 06:02:51;;;;;;;30.45;16.95;;;;;;;;;;5022571;28;20034;-78
2022/06/30 06:05:17;;;;;;;38.55;19.58;;;;;;;;;;5034050;28;20140;-77
2022/06/30 06:07:44;;;;;;;38.55;18.67;;;;;;;;;;5024078;28;20037;-78
2022/06/30 06:10:13;;;;;;;42.90;19.38;;;;;;;;;;5018329;28;20091;-77
2022/06/30 06:12:39;;;;;;;38.80;19.73;;;;;;;;;;5008142;28;20117;-80
2022/06/30 06:15:05;;;;;;;29.48;16.38;;;;;;;;;;5020191;28;20570;-79
2022/06/30 06:17:31;;;;;;;31.33;16.33;;;;;;;;;;5019010;28;20022;-77
2022/06/30 06:19:58;;;;;;;41.65;19.88;;;;;;;;;;5029012;28;20034;-81
2022/06/30 06:22:23;;;;;;;33.15;17.00;;;;;;;;;;5007631;28;20049;-79
2022/06/30 06:24:52;;;;;;;36.15;16.77;;;;;;;;;;5024227;28;20033;-80
2022/06/30 06:27:17;;;;;;;36.40;15.82;;;;;;;;;;5009449;28;20036;-76
2022/06/30 06:29:43;;;;;;;28.25;15.90;;;;;;;;;;5013627;28;20098;-76
2022/06/30 06:32:09;;;;;;;27.25;15.65;;;;;;;;;;4998560;28;20038;-78
2022/06/30 06:34:35;;;;;;;40.22;17.52;;;;;;;;;;5016055;28;20035;-79
2022/06/30 06:37:00;;;;;;;27.90;14.85;;;;;;;;;;5016554;28;20014;-79
2022/06/30 06:39:26;;;;;;;25.17;14.93;;;;;;;;;;4999376;28;20067;-81
2022/06/30 06:41:51;;;;;;;37.65;16.58;;;;;;;;;;5004330;28;20116;-79
2022/06/30 06:44:17;;;;;;;26.77;14.13;;;;;;;;;;5015167;28;20026;-77
2022/06/30 06:46:42;;;;;;;24.58;13.23;;;;;;;;;;5026450;28;20049;-79
2022/06/30 06:49:09;;;;;;;27.98;13.70;;;;;;;;;;5027613;28;20044;-79
2022/06/30 06:51:35;;;;;;;29.02;14.23;;;;;;;;;;5008650;28;20037;-80
2022/06/30 06:54:01;;;;;;;23.15;13.55;;;;;;;;;;5018760;28;20092;-78
2022/06/30 06:56:27;;;;;;;27.35;12.82;;;;;;;;;;5011797;28;20386;-77
2022/06/30 06:58:53;;;;;;;23.63;13.18;;;;;;;;;;5007168;28;20543;-78
2022/06/30 07:01:18;;;;;;;22.70;12.95;;;;;;;;;;5006101;28;20030;-78
2022/06/30 07:03:44;;;;;;;27.83;14.52;;;;;;;;;;5007424;28;20094;-78
2022/06/30 07:06:09;;;;;;;23.10;13.55;;;;;;;;;;5017266;28;20562;-79
2022/06/30 07:08:35;;;;;;;30.55;16.30;;;;;;;;;;5024986;28;20018;-76
2022/06/30 07:11:05;;;;;;;36.17;15.77;;;;;;;;;;5009824;28;20042;-76
2022/06/30 07:13:35;;;;;;;31.08;15.25;;;;;;;;;;5024570;28;20128;-79
2022/06/30 07:16:02;;;;;;;23.67;14.27;;;;;;;;;;5018512;28;20429;-77
2022/06/30 07:18:28;;;;;;;24.20;13.63;;;;;;;;;;5012152;28;20049;-77
2022/06/30 07:21:00;;;;;;;24.95;13.88;;;;;;;;;;5021064;28;20030;-77
2022/06/30 07:23:25;;;;;;;;;;;;;;;;;;5005631;28;20026;-80
2022/06/30 07:25:51;;;;;;;24.67;14.02;;;;;;;;;;5001534;28;19939;-79
2022/06/30 07:28:19;;;;;;;28.35;16.67;;;;;;;;;;5017867;28;20034;-78
2022/06/30 07:30:45;;;;;;;30.77;15.55;;;;;;;;;;5004945;28;20025;-79
2022/06/30 07:33:11;;;;;;;29.25;16.02;;;;;;;;;;4999769;28;20036;-75
2022/06/30 07:35:37;;;;;;;25.88;14.25;;;;;;;;;;5012084;28;20034;-76
2022/06/30 07:38:08;;;;;;;43.20;23.50;;;;;;;;;;5002765;28;20030;-80
2022/06/30 07:40:34;;;;;;;26.83;15.30;;;;;;;;;;5020572;28;20026;-78
2022/06/30 07:43:00;;;;;;;18.45;11.70;;;;;;;;;;5010064;28;20497;-78
2022/06/30 07:45:26;;;;;;;21.95;13.93;;;;;;;;;;4986367;28;20057;-78
2022/06/30 07:47:53;;;;;;;24.48;13.93;;;;;;;;;;5004532;28;20029;-76
2022/06/30 07:50:20;;;;;;;27.98;13.40;;;;;;;;;;5017730;28;20061;-83
2022/06/30 07:52:53;;;;;;;21.70;13.00;;;;;;;;;;5004994;28;20596;-77
2022/06/30 07:55:19;;;;;;;22.10;13.00;;;;;;;;;;5018182;28;20087;-81
2022/06/30 07:57:48;;;;;;;21.05;12.98;;;;;;;;;;5007063;28;20469;-82
2022/06/30 08:00:15;;;;;;;18.45;12.10;;;;;;;;;;5020925;28;20450;-79
2022/06/30 08:02:42;;;;;;;21.30;12.93;;;;;;;;;;5013792;28;20026;-78
2022/06/30 08:05:09;;;;;;;19.45;13.00;;;;;;;;;;4996059;28;20037;-77
2022/06/30 08:07:37;;;;;;;19.42;11.32;;;;;;;;;;4998150;28;20034;-77
2022/06/30 08:10:04;;;;;;;38.95;21.10;;;;;;;;;;4997668;28;20041;-77
2022/06/30 08:12:30;;;;;;;23.65;11.82;;;;;;;;;;5014607;28;20040;-78
2022/06/30 08:14:56;;;;;;;23.30;12.32;;;;;;;;;;4998735;28;20025;-79
2022/06/30 08:17:22;;;;;;;29.38;15.25;;;;;;;;;;5004225;28;20089;-82
2022/06/30 08:19:48;;;;;;;24.02;14.63;;;;;;;;;;5004225;28;20026;-76
2022/06/30 08:22:14;;;;;;;21.55;12.55;;;;;;;;;;5003801;28;20137;-79
2022/06/30 08:24:43;;;;;;;19.25;11.45;;;;;;;;;;5004154;28;20038;-78
2022/06/30 08:27:09;;;;;;;21.45;12.10;;;;;;;;;;5022377;28;20020;-77
2022/06/30 08:29:35;;;;;;;28.90;13.40;;;;;;;;;;5017323;28;20088;-76
2022/06/30 08:32:01;;;;;;;31.08;15.95;;;;;;;;;;5011494;28;20038;-75
2022/06/30 08:34:27;;;;;;;23.13;12.50;;;;;;;;;;4996967;28;20096;-83
2022/06/30 08:36:53;;;;;;;26.70;12.63;;;;;;;;;;5004850;28;20471;-79
2022/06/30 08:42:05;;;;;;;22.98;12.85;;;;;;;;;;5005013;28;20544;-80
2022/06/30 08:44:37;;;;;;;19.92;11.60;;;;;;;;;;4996364;28;20037;-82
2022/06/30 08:47:04;;;;;;;16.58;12.00;;;;;;;;;;5016138;28;20026;-75
2022/06/30 08:49:31;;;;;;;18.33;11.48;;;;;;;;;;4999221;28;20034;-79
2022/06/30 08:51:58;;;;;;;23.23;11.23;;;;;;;;;;5017140;28;20423;-79
2022/06/30 08:54:26;;;;;;;24.30;12.57;;;;;;;;;;5006679;28;20064;-75
2022/06/30 08:56:59;;;;;;;46.30;15.77;;;;;;;;;;5004632;28;20320;-81
2022/06/30 08:59:25;;;;;;;31.75;14.65;;;;;;;;;;5026417;28;20033;-81
2022/06/30 09:01:54;;;;;;;22.33;13.05;;;;;;;;;;5007772;28;20084;-77
2022/06/30 09:04:24;;;;;;;27.95;12.52;;;;;;;;;;5004072;28;20050;-77
2022/06/30 09:06:51;;;;;;;22.38;13.25;;;;;;;;;;5005800;28;20026;-86
2022/06/30 09:09:16;;;;;;;17.17;10.73;;;;;;;;;;5008472;28;20057;-76
2022/06/30 09:11:50;;;;;;;30.70;12.05;;;;;;;;;;5005997;28;20038;-83
2022/06/30 09:14:33;;;;;;;23.02;10.25;;;;;;;;;;5024876;28;20038;-80
2022/06/30 09:16:59;;;;;;;16.88;9.82;;;;;;;;;;5017845;28;20030;-78
2022/06/30 09:19:27;;;;;;;18.52;9.55;;;;;;;;;;5011405;28;20032;-76
2022/06/30 09:22:08;;;;;;;23.75;10.98;;;;;;;;;;5028061;28;20042;-80
2022/06/30 09:24:35;;;;;;;22.70;10.65;;;;;;;;;;5025679;28;20029;-79
2022/06/30 09:27:21;;;;;;;25.00;11.63;;;;;;;;;;5010798;28;20030;-80
2022/06/30 09:30:00;;;;;;;35.13;12.73;;;;;;;;;;5027726;28;20426;-82
2022/06/30 09:32:26;;;;;;;21.27;10.30;;;;;;;;;;5009264;28;20060;-79
2022/06/30 09:34:53;;;;;;;21.75;11.52;;;;;;;;;;5004894;28;20676;-79
2022/06/30 09:37:23;;;;;;;17.42;10.15;;;;;;;;;;5025666;28;20049;-77
2022/06/30 09:39:55;;;;;;;24.75;12.88;;;;;;;;;;4997730;28;20041;-75
2022/06/30 09:42:48;;;;;;;23.27;11.52;;;;;;;;;;5026292;28;20120;-87
2022/06/30 09:45:31;;;;;;;23.40;11.48;;;;;;;;;;5008421;28;20129;-78
2022/06/30 09:47:57;;;;;;;29.02;12.85;;;;;;;;;;5012641;28;20041;-85
2022/06/30 09:50:23;;;;;;;37.63;12.07;;;;;;;;;;5028727;28;20026;-76
2022/06/30 09:53:04;;;;;;;19.13;10.98;;;;;;;;;;5026431;28;20042;-78
2022/06/30 09:55:48;;;;;;;21.38;11.35;;;;;;;;;;5006908;28;20494;-76
2022/06/30 09:58:35;;;;;;;21.13;10.15;;;;;;;;;;5024087;28;20442;-76
2022/06/30 10:01:01;;;;;;;19.10;10.90;;;;;;;;;;5010079;28;20092;-81
2022/06/30 10:03:28;;;;;;;28.35;11.60;;;;;;;;;;5024525;28;20121;-81
2022/06/30 10:06:15;;;;;;;25.73;10.85;;;;;;;;;;5002962;28;20034;-77
2022/06/30 10:08:41;;;;;;;20.52;10.73;;;;;;;;;;4988641;28;20033;-81
2022/06/30 10:11:07;;;;;;;18.80;11.32;;;;;;;;;;5012310;28;20688;-81
2022/06/30 10:13:39;;;;;;;24.17;11.80;;;;;;;;;;5013705;28;20021;-79
2022/06/30 10:16:06;;;;;;;21.52;11.65;;;;;;;;;;5006215;28;20030;-83
2022/06/30 10:18:40;;;;;;;16.98;11.77;;;;;;;;;;5008516;28;20374;-78
2022/06/30 10:21:08;;;;;;;45.78;12.93;;;;;;;;;;5010890;28;20112;-80
2022/06/30 10:23:34;;;;;;;22.08;11.73;;;;;;;;;;5027624;28;20117;-76
2022/06/30 10:26:00;;;;;;;21.60;11.20;;;;;;;;;;5007924;28;20560;-75
2022/06/30 10:28:30;;;;;;;28.42;13.43;;;;;;;;;;5008738;28;20769;-77
2022/06/30 10:31:06;;;;;;;19.30;12.27;;;;;;;;;;5010467;28;20042;-77
2022/06/30 10:34:13;;;;;;;24.15;11.63;;;;;;;;;;5021356;28;20481;-79
2022/06/30 10:37:14;;;;;;;26.58;11.55;;;;;;;;;;5003133;28;20116;-79
2022/06/30 10:40:16;;;;;;;17.95;9.88;;;;;;;;;;5010588;28;20030;-80
2022/06/30 10:42:43;;;;;;;24.10;12.85;;;;;;;;;;5007396;28;20048;-80
2022/06/30 10:45:30;;;;;;;23.55;12.68;;;;;;;;;;5008541;28;20098;-79
2022/06/30 10:48:05;;;;;;;24.30;12.13;;;;;;;;;;5009620;28;20026;-79
2022/06/30 10:50:36;;;;;;;23.27;12.85;;;;;;;;;;5027174;28;20029;-80
2022/06/30 10:53:04;;;;;;;23.98;12.52;;;;;;;;;;5020250;28;20072;-77
2022/06/30 10:55:47;;;;;;;21.92;11.65;;;;;;;;;;5002102;28;20087;-79
2022/06/30 10:58:13;;;;;;;26.85;11.73;;;;;;;;;;5003380;28;20084;-78
2022/06/30 11:00:55;;;;;;;20.58;12.02;;;;;;;;;;5020849;28;20429;-78
2022/06/30 11:03:33;;;;;;;24.58;11.68;;;;;;;;;;5015765;28;20061;-78
2022/06/30 11:06:02;;;;;;;31.80;19.27;;;;;;;;;;4999483;28;20487;-79
2022/06/30 11:09:19;;;;;;;23.40;10.82;;;;;;;;;;5019778;28;20022;-79
2022/06/30 11:11:29;;;;;;;71.97;13.20;;;;;;;;;;4994786;28;20383;-76
2022/06/30 11:14:02;;;;;;;21.80;11.65;;;;;;;;;;5002809;28;20030;-78
2022/06/30 11:16:29;;;;;;;21.08;10.50;;;;;;;;;;4999478;28;20052;-76
2022/06/30 11:18:55;;;;;;;21.05;10.63;;;;;;;;;;5010188;28;20130;-76
2022/06/30 11:21:23;;;;;;;15.55;9.88;;;;;;;;;;5013466;28;20058;-77
2022/06/30 11:23:50;;;;;;;17.75;9.70;;;;;;;;;;5026215;28;20037;-79
2022/06/30 11:29:12;;;;;;;15.65;9.63;;;;;;;;;;5015611;28;20164;-79
2022/06/30 11:31:41;;;;;;;17.55;9.73;;;;;;;;;;5004167;28;20041;-78
2022/06/30 11:34:10;;;;;;;18.00;10.45;;;;;;;;;;4999389;28;20033;-78
2022/06/30 11:36:38;;;;;;;16.83;9.38;;;;;;;;;;4980040;28;20060;-79
2022/06/30 11:39:05;;;;;;;19.33;8.80;;;;;;;;;;4978508;28;20081;-75
2022/06/30 11:44:18;;;;;;;15.95;10.43;;;;;;;;;;5001801;28;20092;-78
2022/06/30 11:46:55;;;;;;;14.15;8.90;;;;;;;;;;5013719;28;20034;-78
2022/06/30 11:49:22;;;;;;;18.08;11.60;;;;;;;;;;4999918;28;20073;-78
2022/06/30 11:51:49;;;;;;;13.77;8.95;;;;;;;;;;5007875;28;20030;-79
2022/06/30 11:54:21;;;;;;;16.98;9.27;;;;;;;;;;5016788;28;20660;-77
2022/06/30 11:56:52;;;;;;;17.05;9.00;;;;;;;;;;5012173;28;20033;-77
2022/06/30 11:59:18;;;;;;;15.77;7.80;;;;;;;;;;5020610;28;20021;-80
2022/06/30 12:02:05;;;;;;;16.00;8.20;;;;;;;;;;5008087;28;20373;-76
2022/06/30 12:04:37;;;;;;;21.13;7.93;;;;;;;;;;5002048;28;20478;-80
2022/06/30 12:07:04;;;;;;;11.80;7.82;;;;;;;;;;5002416;28;20065;-79
2022/06/30 12:09:30;;;;;;;13.40;7.63;;;;;;;;;;4997418;28;20044;-79
2022/06/30 12:12:00;;;;;;;21.35;7.82;;;;;;;;;;5022307;28;20029;-82
2022/06/30 12:14:30;;;;;;;14.83;9.67;;;;;;;;;;5000467;28;20048;-81
2022/06/30 12:16:56;;;;;;;16.65;8.57;;;;;;;;;;5008818;28;20037;-80
2022/06/30 12:19:23;;;;;;;14.43;7.80;;;;;;;;;;5024861;28;20028;-78
2022/06/30 12:21:53;;;;;;;16.85;7.78;;;;;;;;;;5022603;28;20152;-80
2022/06/30 12:24:19;;;;;;;13.05;8.07;;;;;;;;;;5002424;28;20014;-77
2022/06/30 12:26:49;;;;;;;19.30;7.70;;;;;;;;;;5001914;28;20342;-79
2022/06/30 12:29:16;;;;;;;17.60;8.27;;;;;;;;;;5018082;28;20038;-82
2022/06/30 12:31:41;;;;;;;10.60;7.00;;;;;;;;;;5020653;28;20486;-79
2022/06/30 12:34:07;;;;;;;13.50;8.50;;;;;;;;;;4993564;28;20125;-77
2022/06/30 12:36:34;;;;;;;22.38;10.13;;;;;;;;;;5005862;28;20389;-77
2022/06/30 12:39:15;;;;;;;22.63;8.80;;;;;;;;;;5009081;28;20044;-81
2022/06/30 12:41:45;;;;;;;20.77;8.82;;;;;;;;;;5003441;28;20129;-80
2022/06/30 12:44:11;;;;;;;19.00;9.90;;;;;;;;;;4990292;28;20176;-78
2022/06/30 12:46:41;;;;;;;13.25;7.72;;;;;;;;;;5001845;28;20121;-81
2022/06/30 12:49:25;;;;;;;10.82;7.38;;;;;;;;;;5000401;28;20034;-81
2022/06/30 12:51:50;;;;;;;13.32;8.48;;;;;;;;;;5006606;28;20033;-80
2022/06/30 12:54:23;;;;;;;17.17;8.07;;;;;;;;;;5010788;28;20105;-78
2022/06/30 12:56:52;;;;;;;12.15;7.65;;;;;;;;;;5019670;28;20029;-79
2022/06/30 12:59:23;;;;;;;18.80;8.18;;;;;;;;;;4996175;28;20021;-80
2022/06/30 13:02:00;;;;;;;17.48;9.00;;;;;;;;;;5035120;28;20021;-79
2022/06/30 13:04:29;;;;;;;13.32;7.65;;;;;;;;;;5001671;28;20034;-76
2022/06/30 13:06:55;;;;;;;51.30;14.48;;;;;;;;;;5011532;28;20160;-77
2022/06/30 13:09:25;;;;;;;14.05;7.03;;;;;;;;;;5018417;28;20033;-77
2022/06/30 13:11:55;;;;;;;21.07;6.80;;;;;;;;;;5020343;28;20037;-79
2022/06/30 13:14:23;;;;;;;12.45;7.30;;;;;;;;;;4998455;28;20049;-79
2022/06/30 13:16:50;;;;;;;15.13;6.47;;;;;;;;;;5019186;28;20044;-79
2022/06/30 13:19:16;;;;;;;17.63;7.82;;;;;;;;;;5004585;28;20030;-79
2022/06/30 13:21:42;;;;;;;16.60;7.03;;;;;;;;;;5022637;28;20049;-80
2022/06/30 13:24:08;;;;;;;17.85;9.35;;;;;;;;;;5013604;28;20034;-79
2022/06/30 13:26:35;;;;;;;67.13;11.80;;;;;;;;;;5003887;28;20120;-78
2022/06/30 13:29:01;;;;;;;36.83;10.73;;;;;;;;;;5025232;28;20022;-79
2022/06/30 13:31:26;;;;;;;16.60;6.13;;;;;;;;;;5012787;28;20497;-79
2022/06/30 13:33:52;;;;;;;27.23;8.18;;;;;;;;;;5003999;28;20060;-82
2022/06/30 13:36:18;;;;;;;24.90;7.90;;;;;;;;;;4996351;28;20061;-79
2022/06/30 13:38:45;;;;;;;14.50;6.57;;;;;;;;;;5026060;28;20026;-82
2022/06/30 13:41:11;;;;;;;14.18;6.85;;;;;;;;;;5010888;28;20477;-82
2022/06/30 13:43:37;;;;;;;12.27;5.95;;;;;;;;;;5007230;28;20129;-83
2022/06/30 13:46:03;;;;;;;18.55;7.18;;;;;;;;;;4998800;28;20030;-82
2022/06/30 13:48:29;;;;;;;9.27;5.85;;;;;;;;;;4995938;28;20036;-79
2022/06/30 13:50:55;;;;;;;15.05;6.13;;;;;;;;;;5001814;28;20121;-81
2022/06/30 13:53:22;;;;;;;11.43;6.22;;;;;;;;;;5009191;28;20410;-82
2022/06/30 13:55:48;;;;;;;10.40;6.30;;;;;;;;;;5010348;28;20092;-82
2022/06/30 13:58:14;;;;;;;20.90;6.82;;;;;;;;;;5020144;28;20121;-78
2022/06/30 14:00:42;;;;;;;14.15;7.50;;;;;;;;;;5020270;28;20029;-81
2022/06/30 14:03:10;;;;;;;10.73;6.57;;;;;;;;;;5008748;28;20496;-82
2022/06/30 14:05:36;;;;;;;16.63;6.95;;;;;;;;;;5021020;28;20462;-82
2022/06/30 14:08:02;;;;;;;16.23;6.75;;;;;;;;;;5009503;28;20029;-83
2022/06/30 14:10:29;;;;;;;14.40;7.03;;;;;;;;;;5007437;28;20132;-80
2022/06/30 14:12:56;;;;;;;10.02;6.18;;;;;;;;;;5007743;28;20026;-81
2022/06/30 14:15:24;;;;;;;13.18;6.70;;;;;;;;;;5009924;28;20441;-82
2022/06/30 14:17:50;;;;;;;15.43;6.90;;;;;;;;;;5004988;28;20121;-82
2022/06/30 14:20:15;;;;;;;13.10;6.53;;;;;;;;;;5027461;28;20124;-81
2022/06/30 14:22:41;;;;;;;19.38;7.68;;;;;;;;;;5025991;28;20072;-82
2022/06/30 14:25:08;;;;;;;9.73;7.07;;;;;;;;;;5005856;28;20034;-82
2022/06/30 14:27:34;;;;;;;16.17;7.72;;;;;;;;;;5002614;28;20531;-82
2022/06/30 14:30:04;;;;;;;16.27;7.63;;;;;;;;;;5010773;28;20072;-83
2022/06/30 14:32:31;;;;;;;16.75;7.38;;;;;;;;;;5006826;28;20058;-82
2022/06/30 14:34:57;;;;;;;11.70;6.97;;;;;;;;;;5007107;28;20053;-81
2022/06/30 14:37:25;;;;;;;11.55;6.95;;;;;;;;;;5010807;28;20030;-81
2022/06/30 14:39:53;;;;;;;13.35;7.05;;;;;;;;;;5026756;28;20038;-83
2022/06/30 14:45:04;;;;;;;17.58;8.45;;;;;;;;;;5005284;28;20103;-82